Time;durP1;ratioP1;P1;durP2;ratioP2;P2;SDS_P1;SDS_P2;PMS_P1;PMS_P2;Temp;Humidity;BMP_temperature;BMP_pressure;BME280_temperature;BME280_humidity;BME280_pressure;Samples;Min_cycle;Max_cycle;Signal;HPM_P1;HPM_P2
2022/06/14 00:00:56;;;;;;;4.25;1.50;;;;;;;14.13;63.88;101328.88;5031338;28;20038;-88
2022/06/14 00:03:40;;;;;;;5.68;1.63;;;;;;;14.79;61.98;101321.66;5032937;28;20471;-88
2022/06/14 00:06:16;;;;;;;7.57;2.05;;;;;;;14.73;61.94;101314.19;5032344;28;20387;-88
2022/06/14 00:08:41;;;;;;;5.90;1.70;;;;;;;14.57;62.17;101317.06;5041290;28;20373;-88
2022/06/14 00:11:11;;;;;;;4.07;1.60;;;;;;;14.61;62.02;101313.25;5051988;28;20090;-88
2022/06/14 00:13:36;;;;;;;5.97;1.67;;;;;;;14.51;62.12;101314.81;5052420;28;20043;-88
2022/06/14 00:16:02;;;;;;;5.93;2.35;;;;;;;14.17;63.37;101304.78;5050199;28;20029;-93
2022/06/14 00:18:27;;;;;;;4.25;1.60;;;;;;;14.16;63.19;101315.44;5011994;28;20365;-87
2022/06/14 00:20:53;;;;;;;3.42;1.25;;;;;;;14.13;63.60;101303.31;5013050;28;20117;-86
2022/06/14 00:23:19;;;;;;;5.93;2.13;;;;;;;14.07;63.72;101314.31;5017811;28;20510;-87
2022/06/14 00:25:53;;;;;;;5.00;1.83;;;;;;;14.17;63.82;101302.16;5031009;28;20025;-87
2022/06/14 00:28:19;;;;;;;7.82;2.05;;;;;;;14.00;63.55;101307.72;5032217;28;20036;-87
2022/06/14 00:30:48;;;;;;;4.05;1.63;;;;;;;14.03;64.07;101304.91;5032288;28;20029;-86
2022/06/14 00:33:14;;;;;;;6.22;1.83;;;;;;;13.93;63.49;101309.97;5032188;28;20564;-87
2022/06/14 00:35:40;;;;;;;3.42;1.60;;;;;;;13.89;64.46;101306.66;5032155;28;20463;-87
2022/06/14 00:38:05;;;;;;;4.78;1.50;;;;;;;13.85;64.41;101305.19;5032990;28;20033;-87
2022/06/14 00:40:34;;;;;;;11.65;2.35;;;;;;;13.92;64.51;101310.91;5050864;28;20028;-87
2022/06/14 00:43:02;;;;;;;4.22;1.70;;;;;;;13.84;64.54;101302.66;5050491;28;20087;-86
2022/06/14 00:45:28;;;;;;;3.10;1.67;;;;;;;13.79;64.29;101302.97;5051897;28;20033;-87
2022/06/14 00:48:03;;;;;;;3.67;1.65;;;;;;;13.98;64.58;101299.06;5051920;28;20386;-87
2022/06/14 00:50:34;;;;;;;4.32;1.48;;;;;;;13.88;64.56;101302.34;5050506;28;20044;-87
2022/06/14 00:53:35;;;;;;;6.40;2.00;;;;;;;13.98;64.12;101299.06;5050209;28;20040;-87
2022/06/14 00:56:17;;;;;;;4.38;1.95;;;;;;;13.89;64.68;101296.13;5050956;28;20041;-86
2022/06/14 00:58:50;;;;;;;3.45;1.65;;;;;;;13.94;64.18;101294.94;5050424;28;20382;-86
2022/06/14 01:01:23;;;;;;;6.10;1.65;;;;;;;13.92;64.53;101294.22;5051690;28;20546;-87
2022/06/14 01:03:57;;;;;;;6.25;1.95;;;;;;;13.86;64.11;101298.09;5051590;28;20028;-87
2022/06/14 01:06:32;;;;;;;4.75;1.48;;;;;;;13.81;64.83;101293.16;5051984;28;20021;-87
2022/06/14 01:09:04;;;;;;;3.95;1.50;;;;;;;13.79;64.39;101295.03;5049796;28;20039;-87
2022/06/14 01:11:44;;;;;;;3.35;1.73;;;;;;;14.08;63.56;101287.78;5051608;28;20478;-87
2022/06/14 01:14:13;;;;;;;5.88;2.85;;;;;;;13.93;63.78;101286.19;5051706;28;20021;-86
2022/06/14 01:16:39;;;;;;;2.42;1.50;;;;;;;13.91;63.35;101284.63;5051595;28;20028;-86
2022/06/14 01:19:19;;;;;;;4.65;1.83;;;;;;;13.97;63.39;101287.69;5051787;28;20082;-86
2022/06/14 01:22:07;;;;;;;5.72;1.67;;;;;;;14.06;63.69;101280.94;5051251;28;20025;-86
2022/06/14 01:24:34;;;;;;;5.50;1.80;;;;;;;13.86;64.03;101285.78;5040764;28;20034;-86
2022/06/14 01:27:00;;;;;;;7.10;2.15;;;;;;;13.78;63.72;101280.16;5030404;28;20021;-87
2022/06/14 01:29:28;;;;;;;7.85;2.03;;;;;;;13.82;63.71;101279.03;5031673;28;20382;-87
2022/06/14 01:31:59;;;;;;;7.90;1.80;;;;;;;13.96;64.27;101279.84;5031583;28;20033;-87
2022/06/14 01:34:27;;;;;;;3.90;1.67;;;;;;;13.87;63.96;101278.69;5031510;28;20028;-86
2022/06/14 01:36:53;;;;;;;6.20;2.00;;;;;;;13.82;63.94;101268.47;5030504;28;20076;-86
2022/06/14 01:39:19;;;;;;;7.80;1.83;;;;;;;13.78;63.94;101274.88;5031214;28;20368;-86
2022/06/14 01:42:12;;;;;;;6.78;1.58;;;;;;;13.95;63.69;101272.91;5030134;28;20022;-86
2022/06/14 01:44:56;;;;;;;6.07;2.00;;;;;;;13.79;64.18;101276.56;5031047;28;20077;-87
2022/06/14 01:47:34;;;;;;;3.25;1.70;;;;;;;13.96;64.10;101279.84;5031483;28;20029;-87
2022/06/14 01:53:25;;;;;;;5.95;2.15;;;;;;;13.89;63.72;101264.44;5031150;28;20176;-87
2022/06/14 01:56:01;;;;;;;3.97;1.52;;;;;;;13.76;63.95;101273.28;5011656;28;20030;-87
2022/06/14 01:58:36;;;;;;;5.40;1.67;;;;;;;13.84;63.82;101265.69;5011697;28;20117;-87
2022/06/14 02:01:34;;;;;;;9.65;2.47;;;;;;;13.82;63.57;101262.31;5011587;28;20056;-86
2022/06/14 02:07:06;;;;;;;7.78;1.88;;;;;;;13.37;64.24;101256.53;5011490;28;20040;-86
2022/06/14 02:09:52;;;;;;;4.68;1.95;;;;;;;13.48;64.28;101259.31;5027691;28;20024;-87
2022/06/14 02:12:24;;;;;;;5.05;2.00;;;;;;;13.44;64.42;101253.38;5049768;28;20059;-87
2022/06/14 02:15:16;;;;;;;5.75;2.20;;;;;;;13.45;64.88;101248.97;5049328;28;20021;-87
2022/06/14 02:18:08;;;;;;;3.85;2.17;;;;;;;13.59;64.58;101248.06;5054624;28;20060;-87
2022/06/14 02:20:55;;;;;;;5.85;2.10;;;;;;;13.61;64.33;101238.25;5054723;28;20036;-87
2022/06/14 02:23:23;;;;;;;11.38;3.17;;;;;;;13.39;64.50;101241.44;5054771;28;20063;-87
2022/06/14 02:25:58;;;;;;;5.93;2.10;;;;;;;13.52;64.81;101238.84;5054378;28;20029;-87
2022/06/14 02:28:35;;;;;;;6.60;2.10;;;;;;;13.48;64.88;101235.56;5052530;28;20017;-87
2022/06/14 02:31:07;;;;;;;7.15;2.28;;;;;;;13.47;64.25;101231.25;5014426;28;20044;-87
2022/06/14 02:33:41;;;;;;;5.82;2.22;;;;;;;13.47;64.39;101228.63;5014580;28;20434;-87
2022/06/14 02:36:20;;;;;;;5.95;1.58;;;;;;;13.46;64.08;101232.19;5014415;28;20398;-86
2022/06/14 02:38:59;;;;;;;4.43;1.73;;;;;;;13.26;64.37;101233.47;5014429;28;20034;-86
2022/06/14 02:41:33;;;;;;;6.53;2.17;;;;;;;13.22;64.65;101232.84;5014397;28;20053;-87
2022/06/14 02:44:25;;;;;;;7.85;1.88;;;;;;;13.27;64.40;101235.19;5021022;28;20021;-87
2022/06/14 02:47:27;;;;;;;4.57;1.95;;;;;;;13.41;64.12;101245.69;5034185;28;20435;-87
2022/06/14 02:50:26;;;;;;;5.22;2.03;;;;;;;13.40;64.59;101235.22;5044011;28;20116;-86
2022/06/14 02:53:02;;;;;;;5.20;2.10;;;;;;;12.91;66.37;101233.97;5052672;28;20045;-86
2022/06/14 02:55:38;;;;;;;7.93;2.50;;;;;;;12.84;66.47;101237.97;5054074;28;20025;-85
2022/06/14 02:58:14;;;;;;;6.57;1.98;;;;;;;12.81;66.66;101233.72;5053891;28;20029;-86
2022/06/14 03:00:47;;;;;;;4.38;2.45;;;;;;;12.70;67.08;101234.44;5053937;28;20032;-86
2022/06/14 03:03:20;;;;;;;4.53;2.50;;;;;;;13.16;65.20;101232.41;5053147;28;20164;-87
2022/06/14 03:05:51;;;;;;;7.03;2.60;;;;;;;12.80;66.18;101241.75;5014222;28;20030;-86
2022/06/14 03:08:23;;;;;;;5.00;2.17;;;;;;;12.71;67.01;101240.53;5012706;28;20013;-87
2022/06/14 03:11:06;;;;;;;7.35;2.05;;;;;;;12.70;66.42;101237.06;5012479;28;20383;-87
2022/06/14 03:13:37;;;;;;;4.85;2.00;;;;;;;12.65;66.45;101233.84;5013816;28;20025;-87
2022/06/14 03:16:33;;;;;;;5.53;2.30;;;;;;;12.73;66.71;101235.16;5014018;28;20026;-86
2022/06/14 03:19:24;;;;;;;4.05;1.95;;;;;;;12.62;66.72;101238.50;5023128;28;20270;-87
2022/06/14 03:21:57;;;;;;;8.10;2.50;;;;;;;12.56;66.48;101230.97;5053160;28;20449;-87
2022/06/14 03:24:34;;;;;;;5.60;2.15;;;;;;;12.99;65.13;101230.84;5053497;28;20108;-87
2022/06/14 03:27:33;;;;;;;6.05;2.00;;;;;;;12.82;65.60;101224.06;5053213;28;20013;-87
2022/06/14 03:30:09;;;;;;;5.38;2.00;;;;;;;12.61;65.97;101232.38;5053208;28;20025;-86
2022/06/14 03:32:40;;;;;;;5.78;2.05;;;;;;;12.62;66.29;101225.34;5053191;28;20009;-87
2022/06/14 03:35:16;;;;;;;5.47;2.00;;;;;;;12.76;66.00;101222.66;5050135;28;20082;-86
2022/06/14 03:37:41;;;;;;;4.65;2.00;;;;;;;12.67;65.74;101225.88;5053318;28;20489;-86
2022/06/14 03:40:13;;;;;;;6.43;2.03;;;;;;;12.80;65.89;101228.56;5053185;28;20032;-86
2022/06/14 03:42:39;;;;;;;;;;;;;;;13.04;65.11;101226.97;5051980;28;20040;-86
2022/06/14 03:45:08;;;;;;;5.00;1.83;;;;;;;12.67;66.16;101220.59;5053093;28;20012;-87
2022/06/14 03:47:34;;;;;;;6.30;2.15;;;;;;;12.33;66.85;101228.00;5053103;28;20053;-87
2022/06/14 03:50:10;;;;;;;4.03;2.00;;;;;;;12.45;66.91;101227.22;5038390;28;20105;-87
2022/06/14 03:53:08;;;;;;;5.40;1.98;;;;;;;12.77;65.62;101232.22;5031692;28;20033;-87
2022/06/14 03:55:53;;;;;;;4.68;2.00;;;;;;;12.65;65.63;101223.31;5032701;28;20027;-87
2022/06/14 03:58:18;;;;;;;9.85;2.13;;;;;;;12.60;65.78;101222.78;5032857;28;20026;-87
2022/06/14 04:00:55;;;;;;;7.45;1.95;;;;;;;12.78;65.96;101233.94;5032969;28;20112;-87
2022/06/14 04:03:30;;;;;;;3.67;1.77;;;;;;;12.73;65.49;101222.00;5033708;28;20479;-87
2022/06/14 04:06:10;;;;;;;3.72;1.70;;;;;;;12.69;65.77;101223.97;5032720;28;20113;-86
2022/06/14 04:08:51;;;;;;;3.88;1.42;;;;;;;12.84;65.55;101224.81;5032658;28;20018;-86
2022/06/14 04:11:28;;;;;;;6.68;1.80;;;;;;;12.81;65.56;101235.53;5032685;28;20032;-86
2022/06/14 04:14:18;;;;;;;2.85;1.65;;;;;;;12.94;65.33;101230.31;5032542;28;20065;-86
2022/06/14 04:16:54;;;;;;;5.35;2.40;;;;;;;12.91;65.61;101226.06;5032566;28;20443;-86
2022/06/14 04:19:33;;;;;;;7.10;2.50;;;;;;;13.00;65.39;101222.84;5040542;28;20029;-87
2022/06/14 04:22:10;;;;;;;5.88;2.22;;;;;;;13.14;65.55;101224.59;5052044;28;20543;-86
2022/06/14 04:24:56;;;;;;;3.28;2.13;;;;;;;13.31;65.08;101220.00;5052743;28;20025;-86
2022/06/14 04:27:32;;;;;;;5.03;1.95;;;;;;;13.32;65.78;101217.28;5050907;28;20470;-86
2022/06/14 04:30:03;;;;;;;7.80;2.80;;;;;;;13.15;65.07;101220.16;5052151;28;20090;-86
2022/06/14 04:32:40;;;;;;;4.75;2.25;;;;;;;12.95;65.99;101211.75;5051792;28;20421;-86
2022/06/14 04:35:26;;;;;;;6.82;2.22;;;;;;;12.63;67.52;101214.66;5034809;28;20029;-86
2022/06/14 04:38:00;;;;;;;5.40;1.63;;;;;;;12.58;67.40;101210.63;5031524;28;20505;-86
2022/06/14 04:40:31;;;;;;;6.95;2.38;;;;;;;12.56;67.72;101207.25;5032141;28;20445;-86
2022/06/14 04:43:04;;;;;;;2.73;1.83;;;;;;;12.55;67.91;101206.41;5031693;28;20479;-86
2022/06/14 04:45:54;;;;;;;3.45;1.60;;;;;;;12.61;67.38;101213.91;5032004;28;20117;-86
2022/06/14 04:48:23;;;;;;;2.60;1.73;;;;;;;12.53;67.64;101210.09;5036505;28;20037;-86
2022/06/14 04:50:53;;;;;;;5.13;1.70;;;;;;;12.53;67.10;101213.56;5051721;28;20025;-86
2022/06/14 04:53:45;;;;;;;6.45;2.30;;;;;;;12.40;68.41;101207.38;5052039;28;20028;-86
2022/06/14 04:56:22;;;;;;;3.50;2.20;;;;;;;12.33;68.26;101206.09;5051769;28;20024;-87
2022/06/14 04:58:59;;;;;;;7.82;2.35;;;;;;;12.38;68.22;101209.25;5051887;28;20604;-86
2022/06/14 05:01:46;;;;;;;7.65;2.40;;;;;;;12.79;67.09;101205.78;5051529;28;20087;-86
2022/06/14 05:04:25;;;;;;;7.63;1.85;;;;;;;13.28;65.54;101211.31;5037673;28;20052;-86
2022/06/14 05:07:04;;;;;;;8.10;2.67;;;;;;;13.36;64.92;101212.66;5031812;28;20438;-86
2022/06/14 05:09:34;;;;;;;6.55;1.95;;;;;;;13.32;65.14;101206.72;5031852;28;20037;-86
2022/06/14 05:12:23;;;;;;;2.75;1.60;;;;;;;13.56;65.05;101209.50;5030394;28;20487;-87
2022/06/14 05:15:14;;;;;;;3.30;1.80;;;;;;;13.58;64.99;101206.75;5032097;28;20120;-87
2022/06/14 05:18:03;;;;;;;4.13;1.90;;;;;;;13.63;64.72;101216.06;5034883;28;20040;-86
2022/06/14 05:20:40;;;;;;;5.35;2.08;;;;;;;13.66;64.92;101220.28;5051339;28;20075;-86
2022/06/14 05:23:21;;;;;;;5.32;2.17;;;;;;;13.66;64.96;101215.88;5051708;28;20091;-86
2022/06/14 05:26:18;;;;;;;6.93;2.65;;;;;;;13.81;64.71;101218.41;5051514;28;20033;-86
2022/06/14 05:29:04;;;;;;;2.58;2.00;;;;;;;13.81;64.17;101218.41;5051318;28;20032;-87
2022/06/14 05:31:39;;;;;;;5.70;2.58;;;;;;;13.91;64.77;101221.25;5051255;28;20021;-87
2022/06/14 05:34:16;;;;;;;5.13;2.20;;;;;;;13.96;64.63;101208.56;5049730;28;20028;-86
2022/06/14 05:36:52;;;;;;;6.82;2.40;;;;;;;13.99;64.90;101206.56;5051289;28;20032;-87
2022/06/14 05:39:38;;;;;;;4.53;2.40;;;;;;;14.11;64.61;101210.16;5051429;28;20040;-87
2022/06/14 05:42:11;;;;;;;5.90;2.70;;;;;;;14.08;64.38;101210.38;5049828;28;20119;-86
2022/06/14 05:44:49;;;;;;;5.07;2.47;;;;;;;14.23;64.55;101213.72;5051436;28;20017;-86
2022/06/14 05:47:21;;;;;;;7.85;2.78;;;;;;;14.20;64.53;101203.38;5050677;28;20068;-86
2022/06/14 05:49:52;;;;;;;6.40;3.08;;;;;;;14.31;64.26;101207.91;5033401;28;20038;-87
2022/06/14 05:52:25;;;;;;;6.88;3.03;;;;;;;14.42;64.37;101205.34;5035067;28;20113;-86
2022/06/14 05:55:05;;;;;;;4.80;2.75;;;;;;;14.57;63.56;101204.25;5035232;28;20087;-86
2022/06/14 05:57:39;;;;;;;4.28;2.42;;;;;;;14.70;63.57;101211.31;5034900;28;20033;-86
2022/06/14 06:00:11;;;;;;;8.60;2.83;;;;;;;14.67;63.42;101202.66;5035049;28;20490;-86
2022/06/14 06:03:03;;;;;;;5.88;2.97;;;;;;;14.90;63.20;101208.06;5034883;28;20418;-86
2022/06/14 06:05:42;;;;;;;7.97;2.67;;;;;;;15.07;62.80;101198.88;5032719;28;20449;-86
2022/06/14 06:08:21;;;;;;;4.63;2.65;;;;;;;15.26;61.75;101199.19;5034794;28;20041;-85
2022/06/14 06:10:52;;;;;;;5.55;2.85;;;;;;;15.39;61.67;101201.75;5034810;28;20059;-86
2022/06/14 06:13:45;;;;;;;5.03;2.80;;;;;;;15.79;60.79;101201.38;5034822;28;20037;-85
2022/06/14 06:16:16;;;;;;;6.00;2.88;;;;;;;15.91;60.52;101204.03;5028171;28;20277;-85
2022/06/14 06:18:52;;;;;;;6.15;2.85;;;;;;;16.24;59.73;101200.56;5036775;28;20498;-85
2022/06/14 06:21:33;;;;;;;7.60;2.58;;;;;;;16.54;58.42;101209.66;5014699;28;20026;-89
2022/06/14 06:24:10;;;;;;;11.32;3.20;;;;;;;17.02;56.98;101210.19;5014939;28;20080;-88
2022/06/14 06:26:40;;;;;;;5.57;2.50;;;;;;;17.37;55.83;101206.38;5014617;28;20021;-86
2022/06/14 06:29:27;;;;;;;6.38;2.72;;;;;;;17.72;55.55;101202.56;5013460;28;20379;-87
2022/06/14 06:31:53;;;;;;;7.50;2.80;;;;;;;19.89;49.74;101199.09;5020941;28;20029;-89
2022/06/14 06:34:19;;;;;;;7.75;2.03;;;;;;;22.18;44.86;101197.69;5036385;28;20387;-87
2022/06/14 06:37:10;;;;;;;3.70;1.77;;;;;;;23.96;41.68;101195.50;5034204;28;20033;-87
2022/06/14 06:39:59;;;;;;;4.70;1.90;;;;;;;23.43;41.78;101188.91;5038026;28;20036;-87
2022/06/14 06:43:06;;;;;;;5.82;1.80;;;;;;;23.19;42.58;101193.25;5041300;28;20044;-88
2022/06/14 06:45:37;;;;;;;3.35;1.65;;;;;;;26.06;36.28;101182.69;4996074;28;20039;-87
2022/06/14 06:48:21;;;;;;;5.43;1.83;;;;;;;29.20;31.88;101166.69;5026184;28;20047;-88
2022/06/14 06:50:52;;;;;;;6.32;1.60;;;;;;;31.93;27.52;101131.63;5044796;28;20048;-87
2022/06/14 06:53:22;;;;;;;;;;;;;;;33.55;25.33;101129.72;5014601;28;20426;-87
2022/06/14 06:56:00;;;;;;;6.13;1.52;;;;;;;35.18;23.92;101122.91;5014137;28;20375;-87
2022/06/14 06:58:28;;;;;;;2.75;1.27;;;;;;;35.84;22.25;101114.75;5014279;28;20030;-87
2022/06/14 07:00:57;;;;;;;3.92;1.38;;;;;;;36.81;21.77;101158.69;5021192;28;20485;-87
2022/06/14 07:03:40;;;;;;;5.78;1.67;;;;;;;37.97;20.95;101168.94;5033668;28;20044;-88
2022/06/14 07:06:13;;;;;;;5.03;1.17;;;;;;;39.11;19.21;101171.56;5033759;28;20100;-88
2022/06/14 07:08:48;;;;;;;5.00;1.15;;;;;;;39.95;18.03;101102.28;5033857;28;20386;-88
2022/06/14 07:11:20;;;;;;;6.50;1.70;;;;;;;40.49;18.07;101062.84;5032728;28;20077;-92
2022/06/14 07:13:49;;;;;;;6.18;1.08;;;;;;;40.93;17.93;101056.34;5013740;28;20068;-88
2022/06/14 07:16:30;;;;;;;5.68;1.42;;;;;;;41.33;17.39;101043.19;5027655;28;20025;-87
2022/06/14 07:19:04;;;;;;;4.15;1.15;;;;;;;42.37;16.21;101090.22;5053747;28;20029;-87
2022/06/14 07:21:37;;;;;;;6.00;1.20;;;;;;;42.29;17.04;101146.09;5053467;28;20036;-87
2022/06/14 07:24:15;;;;;;;8.57;1.02;;;;;;;43.02;16.40;101149.31;5053944;28;20040;-87
2022/06/14 07:26:46;;;;;;;7.85;1.30;;;;;;;43.85;15.75;101108.63;5046081;28;20039;-88
2022/06/14 07:29:20;;;;;;;;;;;;;;;44.50;15.76;100995.78;5032992;28;20483;-89
2022/06/14 07:32:16;;;;;;;5.03;1.60;;;;;;;41.02;17.31;100996.75;5033424;28;19916;-88
2022/06/14 07:34:42;;;;;;;7.72;1.33;;;;;;;42.68;16.72;101070.34;5012076;28;20376;-88
2022/06/14 07:37:29;;;;;;;9.77;1.65;;;;;;;42.89;15.96;101137.94;5033040;28;20060;-91
2022/06/14 07:40:17;;;;;;;6.38;1.77;;;;;;;43.51;15.66;101081.44;5031414;28;20025;-87
2022/06/14 07:43:00;;;;;;;5.13;1.42;;;;;;;44.38;15.21;101142.22;5033132;28;20052;-88
2022/06/14 07:45:32;;;;;;;4.90;1.52;;;;;;;43.73;15.35;101006.84;5033520;28;20105;-89
2022/06/14 07:48:37;;;;;;;4.95;1.30;;;;;;;44.29;15.10;100995.50;5034851;28;20038;-89
2022/06/14 07:51:12;;;;;;;6.25;1.50;;;;;;;44.36;15.62;101123.19;5032931;28;20032;-88
2022/06/14 07:53:47;;;;;;;7.22;1.45;;;;;;;44.10;15.74;101093.38;5035019;28;20029;-87
2022/06/14 07:56:19;;;;;;;6.05;1.48;;;;;;;42.69;16.20;101034.16;5033224;28;20487;-88
2022/06/14 07:59:11;;;;;;;5.50;1.73;;;;;;;42.73;16.14;101144.84;5033131;28;20025;-88
2022/06/14 08:02:00;;;;;;;5.45;1.60;;;;;;;43.54;15.81;101078.84;5034195;28;20053;-88
2022/06/14 08:04:43;;;;;;;5.32;1.70;;;;;;;41.29;17.37;101130.31;5033229;28;20029;-88
2022/06/14 08:07:14;;;;;;;6.15;1.75;;;;;;;41.69;17.53;101125.44;5031816;28;20029;-89
2022/06/14 08:09:45;;;;;;;5.03;1.40;;;;;;;42.80;16.63;101078.97;5033074;28;20060;-89
2022/06/14 08:12:31;;;;;;;8.27;1.88;;;;;;;43.38;15.88;101117.06;5032761;28;20057;-89
2022/06/14 08:15:09;;;;;;;4.85;1.65;;;;;;;43.72;15.88;101132.41;5032059;28;20041;-88
2022/06/14 08:17:45;;;;;;;7.07;1.50;;;;;;;41.42;16.77;101128.81;5049756;28;20514;-89
2022/06/14 08:20:26;;;;;;;4.53;1.55;;;;;;;42.17;16.72;101128.06;5052600;28;20031;-89
2022/06/14 08:22:56;;;;;;;6.25;1.50;;;;;;;42.11;16.32;101107.19;5052363;28;20478;-88
2022/06/14 08:25:29;;;;;;;6.15;1.20;;;;;;;42.31;16.12;101108.00;5038359;28;20037;-90
2022/06/14 08:28:24;;;;;;;9.52;1.88;;;;;;;42.38;16.75;101117.53;5034622;28;20071;-89
2022/06/14 08:30:59;;;;;;;6.10;1.67;;;;;;;42.96;16.13;101118.19;5015989;28;20034;-89
2022/06/14 08:33:36;;;;;;;4.43;1.30;;;;;;;42.31;16.32;101121.78;5031581;28;20068;-89
2022/06/14 08:36:07;;;;;;;3.92;1.10;;;;;;;41.69;16.22;101119.94;5037286;28;20021;-89
2022/06/14 08:38:35;;;;;;;;;;;;;;;42.91;16.04;101108.06;5031284;28;20160;-90
2022/06/14 08:41:22;;;;;;;6.28;1.20;;;;;;;43.09;16.17;101102.75;5031555;28;19939;-88
2022/06/14 08:43:55;;;;;;;5.35;1.23;;;;;;;42.84;16.05;101117.88;5023544;28;20482;-88
2022/06/14 08:46:55;;;;;;;6.25;1.40;;;;;;;42.08;16.77;101120.78;5031687;28;20033;-88
2022/06/14 08:49:51;;;;;;;3.60;1.52;;;;;;;42.15;16.06;101107.44;5022430;28;20052;-89
2022/06/14 08:52:22;;;;;;;5.90;2.08;;;;;;;41.55;16.94;101107.94;5031781;28;20034;-89
2022/06/14 08:55:10;;;;;;;4.18;1.10;;;;;;;43.12;16.66;101107.66;5030578;28;20379;-89
2022/06/14 08:58:04;;;;;;;2.65;1.02;;;;;;;42.76;16.19;101109.16;5033763;28;20021;-89
2022/06/14 09:01:01;;;;;;;5.40;1.65;;;;;;;40.99;17.46;101092.91;5020673;28;20438;-89
2022/06/14 09:03:54;;;;;;;3.90;1.27;;;;;;;42.57;17.09;101092.63;5031421;28;20026;-89
2022/06/14 09:06:45;;;;;;;6.72;1.20;;;;;;;38.14;19.80;101102.94;5028813;28;20037;-89
2022/06/14 09:09:29;;;;;;;;;;;;;;;35.62;22.32;101101.09;5051995;28;20021;-88
2022/06/14 09:12:25;;;;;;;6.15;1.52;;;;;;;34.84;23.50;101103.00;5012192;28;20297;-89
2022/06/14 09:14:53;;;;;;;7.95;1.30;;;;;;;32.60;26.86;101098.94;5011981;28;20033;-89
2022/06/14 09:17:46;;;;;;;6.10;1.73;;;;;;;32.39;25.81;101094.88;5012406;28;20409;-89
2022/06/14 09:20:27;;;;;;;3.83;1.20;;;;;;;30.71;27.62;101105.94;5011892;28;20028;-87
2022/06/14 09:23:14;;;;;;;;;;;;;;;31.15;26.81;101095.94;5024053;28;20025;-89
2022/06/14 09:26:05;;;;;;;3.05;1.13;;;;;;;32.82;25.61;101087.50;5036498;28;19922;-88
2022/06/14 09:28:52;;;;;;;6.35;1.50;;;;;;;31.93;26.53;101091.75;5028945;28;20383;-87
2022/06/14 09:31:39;;;;;;;6.53;1.85;;;;;;;29.56;28.85;101090.47;5034191;28;20082;-88
2022/06/14 09:34:31;;;;;;;8.05;1.55;;;;;;;29.91;29.14;101090.13;5034033;28;20040;-88
2022/06/14 09:37:33;;;;;;;5.85;1.30;;;;;;;29.95;29.33;101090.53;5035543;28;20033;-88
2022/06/14 09:40:27;;;;;;;4.80;1.88;;;;;;;33.04;26.53;101080.44;5035170;28;20479;-88
2022/06/14 09:43:11;;;;;;;3.20;1.10;;;;;;;35.12;23.69;101083.78;5034480;28;20139;-90
2022/06/14 09:46:14;;;;;;;3.47;1.23;;;;;;;35.52;21.59;101076.38;5035399;28;20025;-89
2022/06/14 09:49:01;;;;;;;4.90;1.40;;;;;;;36.92;20.73;101063.78;5036784;28;20097;-90
2022/06/14 09:51:40;;;;;;;3.50;1.00;;;;;;;38.26;21.21;101065.91;5025557;28;20030;-90
2022/06/14 09:54:05;;;;;;;4.18;1.20;;;;;;;34.32;22.63;101074.88;5037269;28;20472;-89
2022/06/14 09:56:36;;;;;;;2.92;1.02;;;;;;;33.45;23.53;101065.00;5033664;28;20076;-89
2022/06/14 09:59:04;;;;;;;;;;;;;;;32.96;23.88;101067.16;5035321;28;20037;-89
2022/06/14 10:01:41;;;;;;;3.53;1.23;;;;;;;33.96;23.95;101066.03;5034832;28;19913;-89
2022/06/14 10:04:22;;;;;;;3.63;1.20;;;;;;;36.11;22.35;101062.84;5035054;28;20056;-89
2022/06/14 10:07:05;;;;;;;4.05;1.20;;;;;;;37.29;20.61;101071.13;5034586;28;20061;-88
2022/06/14 10:10:08;;;;;;;3.88;1.52;;;;;;;37.57;20.20;101066.31;5048393;28;20538;-89
2022/06/14 10:13:01;;;;;;;4.45;1.20;;;;;;;36.11;21.75;101059.28;5031124;28;20376;-90
2022/06/14 10:15:44;;;;;;;4.45;1.20;;;;;;;38.46;19.62;101064.28;5033376;28;20592;-90
2022/06/14 10:18:26;;;;;;;5.38;1.50;;;;;;;38.56;18.63;101060.72;5034478;28;20030;-91
2022/06/14 10:20:51;;;;;;;4.30;1.52;;;;;;;38.41;20.00;101059.63;5034712;28;20076;-89
2022/06/14 10:24:04;;;;;;;2.83;1.33;;;;;;;39.37;18.14;101047.88;5034261;28;20037;-89
2022/06/14 10:29:59;;;;;;;5.65;1.40;;;;;;;36.07;20.85;101052.69;5034217;28;20044;-89
2022/06/14 10:32:45;;;;;;;2.95;1.27;;;;;;;34.81;22.61;101054.41;5033950;28;20048;-89
2022/06/14 10:35:30;;;;;;;3.17;1.35;;;;;;;35.33;23.37;101051.34;5034319;28;20379;-89
2022/06/14 10:38:27;;;;;;;3.30;1.42;;;;;;;33.46;23.79;101034.00;5035718;28;20474;-89
2022/06/14 10:40:52;;;;;;;3.40;1.00;;;;;;;33.73;23.89;101028.00;5037003;28;20083;-88
2022/06/14 10:43:18;;;;;;;1.95;1.10;;;;;;;32.44;25.19;101027.03;5021984;28;20443;-90
2022/06/14 10:45:54;;;;;;;3.85;1.63;;;;;;;32.57;26.10;101036.91;5018431;28;20064;-89
2022/06/14 10:48:28;;;;;;;3.80;1.38;;;;;;;32.04;26.70;101019.53;5053387;28;20025;-89
2022/06/14 10:51:35;;;;;;;5.28;1.42;;;;;;;33.80;24.32;101016.97;5045708;28;20032;-89
2022/06/14 10:54:21;;;;;;;2.53;1.00;;;;;;;35.71;22.63;100998.53;5033943;28;20021;-90
2022/06/14 10:57:23;;;;;;;4.07;1.08;;;;;;;34.67;23.19;101008.38;5032802;28;20057;-90
2022/06/14 11:00:17;;;;;;;3.72;1.02;;;;;;;34.52;22.61;101008.09;5033824;28;20014;-90
2022/06/14 11:02:55;;;;;;;2.72;1.42;;;;;;;35.92;21.09;101002.28;5037936;28;20017;-89
2022/06/14 11:06:07;;;;;;;9.15;1.10;;;;;;;35.29;21.04;101001.03;5033826;28;20025;-90
2022/06/14 11:08:41;;;;;;;2.25;0.90;;;;;;;35.25;21.42;100999.88;5016848;28;20033;-90
2022/06/14 11:11:28;;;;;;;2.35;0.90;;;;;;;34.16;22.37;100997.50;5048831;28;20482;-91
2022/06/14 11:14:12;;;;;;;4.80;0.98;;;;;;;34.75;22.96;100997.03;5053397;28;20031;-90
2022/06/14 11:17:18;;;;;;;3.30;1.00;;;;;;;34.94;22.18;100988.56;5053926;28;20079;-90
2022/06/14 11:20:11;;;;;;;3.17;1.60;;;;;;;35.12;22.08;100995.63;5032792;28;20025;-89
2022/06/14 11:22:49;;;;;;;4.10;1.23;;;;;;;35.49;21.15;100987.63;5025877;28;20034;-88
2022/06/14 11:25:17;;;;;;;3.92;1.20;;;;;;;35.00;22.25;100990.28;5047770;28;20036;-89
2022/06/14 11:28:04;;;;;;;4.78;1.92;;;;;;;35.76;21.87;100983.25;5034215;28;20033;-90
2022/06/14 11:30:53;;;;;;;2.95;1.40;;;;;;;34.96;22.13;100979.03;5013077;28;20115;-90
2022/06/14 11:33:30;;;;;;;4.40;1.35;;;;;;;35.37;21.74;100986.09;5011114;28;20121;-90
2022/06/14 11:36:01;;;;;;;3.63;1.10;;;;;;;32.52;24.67;100990.53;5020172;28;20026;-89
2022/06/14 11:38:46;;;;;;;5.10;1.30;;;;;;;32.93;24.08;100984.16;5033096;28;20034;-90
2022/06/14 11:41:15;;;;;;;2.90;1.20;;;;;;;33.66;24.22;100981.03;5033137;28;20026;-90
2022/06/14 11:43:48;;;;;;;4.38;1.17;;;;;;;34.36;24.07;100967.00;5020647;28;20495;-90
2022/06/14 11:46:48;;;;;;;5.43;0.90;;;;;;;35.27;23.09;100967.69;5035189;28;20032;-90
2022/06/14 11:49:27;;;;;;;6.13;1.50;;;;;;;35.41;22.18;100962.66;5047970;28;20037;-91
2022/06/14 11:52:05;;;;;;;3.10;1.13;;;;;;;36.23;22.15;100960.75;5025958;28;20105;-91
2022/06/14 11:54:47;;;;;;;4.75;1.38;;;;;;;35.89;21.52;100967.28;5026406;28;20034;-90
2022/06/14 11:57:15;;;;;;;4.68;1.05;;;;;;;35.74;21.54;100967.13;5031490;28;20112;-90
2022/06/14 11:59:55;;;;;;;5.40;1.45;;;;;;;35.58;22.64;100959.84;5033183;28;20092;-89
2022/06/14 12:02:39;;;;;;;1.80;0.95;;;;;;;35.42;22.21;100964.31;5031362;28;20506;-89
2022/06/14 12:05:10;;;;;;;2.50;1.00;;;;;;;35.75;21.66;100963.31;5022826;28;20045;-90
2022/06/14 12:07:39;;;;;;;3.08;1.05;;;;;;;36.41;22.20;100957.56;5026755;28;20112;-90
2022/06/14 12:10:17;;;;;;;5.03;1.10;;;;;;;36.08;22.22;100955.94;5029972;28;20076;-90
2022/06/14 12:13:02;;;;;;;3.30;1.15;;;;;;;35.26;22.65;100957.88;5014177;28;20034;-89
2022/06/14 12:15:42;;;;;;;2.97;1.05;;;;;;;36.28;22.59;100958.06;5021061;28;20026;-90
2022/06/14 12:18:12;;;;;;;3.47;1.20;;;;;;;35.07;23.27;100963.66;5021801;28;20025;-90
2022/06/14 12:21:05;;;;;;;5.93;1.08;;;;;;;35.78;22.70;100951.88;5018741;28;20025;-89
2022/06/14 12:23:33;;;;;;;1.55;0.90;;;;;;;34.67;22.28;100940.19;5047866;28;20061;-90
2022/06/14 12:28:59;;;;;;;2.92;1.35;;;;;;;35.94;23.01;100941.88;5028364;28;20056;-90
2022/06/14 12:31:38;;;;;;;2.22;0.80;;;;;;;35.20;23.68;100945.25;5020127;28;20034;-91
2022/06/14 12:34:12;;;;;;;3.05;1.00;;;;;;;34.58;23.41;100947.16;5021977;28;20028;-91